Lake Cowichan, Canada
Current Conditions -  °F | °C
As of 9:00 PM on Saturday 25 Oct 2014 (Local Time) from CYCD Reporting Station
Light Rain Light Rain  
Wind Chill: 48°   Ceiling: 2500
Heat Index: 48°   Visibility: 5mi
Dew Point: 46°   Wind: 3mph
Humidity: 93%   Direction: 320°NW
Pressure: 29.38"   Gusts: NA
Location:  48.82°N, 124.03°W
Report Text: CYCD 260400Z 32003KT 250V350 5SM -RA BR SCT007 OVC025 09/08 A2938 RMK SF3SC5 LAST OBS/NEXT 261300 UTC PRESRR SLP948
Loading
Personal Weather Stations






























Interactive Weather Map
Tropical Storm Tracking
New forecast layout! Learn more

10-Day Weather Forecast

Advertisements
Track Severe Weather on mobile